Portada
METAR-TAF:

METAR-TAF

Aeropuertos :

Aeropuerto de Córdoba

Córdoba, España

latitud: 37-51N, longitud: 004-51W, altitud: 90 m

Observación

El informe se hizo hace 19 minutos, a las 03:00 UTC
Viento 6 kt del este-noreste
Temperatura 10°C
Humedad 87%
Presión 1028 hPa
Visibilidad 10 km o más

METAR: LEBA 100300Z AUTO 06006KT 9999 NCD 10/08 Q1028

Hora: 04:19 (03:19 UTC)

Pronóstico

El informe se hizo hace 1 hora y 19 minutos, a las 02:00 UTC
Pronóstico válido del 10 a las 03 UTC al 10 a las 12 UTC
Viento 8 kt del este
Visibilidad 10 km o más
sin nubes por debajo de 1500 m y sin presencia de cumulonimbus.

TAF: LEBA 100200Z 1003/1012 08008KT CAVOK

Observaciones y pronósticos meteorológicos de más de 4000 aeropuertos (mensajes METAR y TAF).

Los puntos amarillos y rojos representan las estaciones disponibles.

Ponga el ratón en el punto deseado para ver el nombre de la estación.

Haga clic para ver las observaciones y los pronósticos meteorológicos.

Para cambiar el mapa : haga clic en los botones verdes con una cruz de color negro para hacer un zoom, en el botón verde con un guión para alejar o en las flechas verdes para mapas adyacentes.


METAR-TAF: